sensor_id;sensor_type;location;lat;lon;timestamp;P1;durP1;ratioP1;P2;durP2;ratioP2
19535;SDS011;9913;51.168;4.124;2022-08-19T00:00:03;29.05;;;18.73;;
19535;SDS011;9913;51.168;4.124;2022-08-19T00:02:34;31.83;;;18.58;;
19535;SDS011;9913;51.168;4.124;2022-08-19T00:05:17;32.10;;;20.58;;
19535;SDS011;9913;51.168;4.124;2022-08-19T00:07:46;33.70;;;20.15;;
19535;SDS011;9913;51.168;4.124;2022-08-19T00:10:15;34.40;;;19.92;;
19535;SDS011;9913;51.168;4.124;2022-08-19T00:12:48;34.78;;;20.33;;
19535;SDS011;9913;51.168;4.124;2022-08-19T00:15:18;32.33;;;20.67;;
19535;SDS011;9913;51.168;4.124;2022-08-19T00:17:50;35.67;;;20.88;;
19535;SDS011;9913;51.168;4.124;2022-08-19T00:20:25;34.22;;;21.92;;
19535;SDS011;9913;51.168;4.124;2022-08-19T00:22:53;41.83;;;23.88;;
19535;SDS011;9913;51.168;4.124;2022-08-19T00:25:30;39.80;;;22.38;;
19535;SDS011;9913;51.168;4.124;2022-08-19T00:28:01;43.03;;;24.65;;
19535;SDS011;9913;51.168;4.124;2022-08-19T00:30:32;42.53;;;24.38;;
19535;SDS011;9913;51.168;4.124;2022-08-19T00:33:00;45.17;;;25.75;;
19535;SDS011;9913;51.168;4.124;2022-08-19T00:35:31;42.03;;;23.48;;
19535;SDS011;9913;51.168;4.124;2022-08-19T00:38:02;43.90;;;24.45;;
19535;SDS011;9913;51.168;4.124;2022-08-19T00:40:34;41.65;;;24.10;;
19535;SDS011;9913;51.168;4.124;2022-08-19T00:43:07;48.83;;;25.48;;
19535;SDS011;9913;51.168;4.124;2022-08-19T00:45:43;46.67;;;26.40;;
19535;SDS011;9913;51.168;4.124;2022-08-19T00:48:11;48.13;;;26.67;;
19535;SDS011;9913;51.168;4.124;2022-08-19T00:50:42;47.28;;;27.33;;
19535;SDS011;9913;51.168;4.124;2022-08-19T00:53:22;46.60;;;27.10;;
19535;SDS011;9913;51.168;4.124;2022-08-19T00:55:53;47.55;;;27.27;;
19535;SDS011;9913;51.168;4.124;2022-08-19T00:58:24;48.58;;;26.80;;
19535;SDS011;9913;51.168;4.124;2022-08-19T01:00:57;48.25;;;25.70;;
19535;SDS011;9913;51.168;4.124;2022-08-19T01:03:25;46.28;;;26.60;;
19535;SDS011;9913;51.168;4.124;2022-08-19T01:05:55;43.53;;;25.33;;
19535;SDS011;9913;51.168;4.124;2022-08-19T01:08:26;48.08;;;25.52;;
19535;SDS011;9913;51.168;4.124;2022-08-19T01:10:57;41.22;;;23.80;;
19535;SDS011;9913;51.168;4.124;2022-08-19T01:13:33;41.75;;;24.05;;
19535;SDS011;9913;51.168;4.124;2022-08-19T01:16:16;40.65;;;22.80;;
19535;SDS011;9913;51.168;4.124;2022-08-19T01:18:49;39.05;;;23.23;;
19535;SDS011;9913;51.168;4.124;2022-08-19T01:21:20;39.13;;;22.55;;
19535;SDS011;9913;51.168;4.124;2022-08-19T01:23:56;35.47;;;20.17;;
19535;SDS011;9913;51.168;4.124;2022-08-19T01:26:37;42.03;;;21.02;;
19535;SDS011;9913;51.168;4.124;2022-08-19T01:29:08;35.22;;;19.92;;
19535;SDS011;9913;51.168;4.124;2022-08-19T01:31:37;34.90;;;20.65;;
19535;SDS011;9913;51.168;4.124;2022-08-19T01:34:07;36.95;;;21.27;;
19535;SDS011;9913;51.168;4.124;2022-08-19T01:36:40;36.63;;;20.48;;
19535;SDS011;9913;51.168;4.124;2022-08-19T01:39:19;33.33;;;19.25;;
19535;SDS011;9913;51.168;4.124;2022-08-19T01:41:55;36.97;;;20.40;;
19535;SDS011;9913;51.168;4.124;2022-08-19T01:44:27;38.58;;;20.55;;
19535;SDS011;9913;51.168;4.124;2022-08-19T01:46:55;36.05;;;21.27;;
19535;SDS011;9913;51.168;4.124;2022-08-19T01:49:23;37.53;;;20.00;;
19535;SDS011;9913;51.168;4.124;2022-08-19T01:51:53;38.10;;;21.52;;
19535;SDS011;9913;51.168;4.124;2022-08-19T01:54:25;43.20;;;20.83;;
19535;SDS011;9913;51.168;4.124;2022-08-19T01:56:55;41.67;;;21.75;;
19535;SDS011;9913;51.168;4.124;2022-08-19T01:59:29;38.45;;;20.88;;
19535;SDS011;9913;51.168;4.124;2022-08-19T02:01:59;42.30;;;22.65;;
19535;SDS011;9913;51.168;4.124;2022-08-19T02:04:27;37.25;;;20.73;;
19535;SDS011;9913;51.168;4.124;2022-08-19T02:06:57;36.92;;;20.73;;
19535;SDS011;9913;51.168;4.124;2022-08-19T02:09:26;34.75;;;19.73;;
19535;SDS011;9913;51.168;4.124;2022-08-19T02:11:56;36.00;;;21.38;;
19535;SDS011;9913;51.168;4.124;2022-08-19T02:14:25;34.83;;;20.48;;
19535;SDS011;9913;51.168;4.124;2022-08-19T02:16:54;40.05;;;21.67;;
19535;SDS011;9913;51.168;4.124;2022-08-19T02:19:26;42.00;;;22.52;;
19535;SDS011;9913;51.168;4.124;2022-08-19T02:21:54;38.55;;;20.92;;
19535;SDS011;9913;51.168;4.124;2022-08-19T02:24:23;38.67;;;21.80;;
19535;SDS011;9913;51.168;4.124;2022-08-19T02:26:58;44.00;;;22.92;;
19535;SDS011;9913;51.168;4.124;2022-08-19T02:29:26;38.63;;;22.17;;
19535;SDS011;9913;51.168;4.124;2022-08-19T02:31:54;43.67;;;22.90;;
19535;SDS011;9913;51.168;4.124;2022-08-19T02:34:23;41.13;;;22.70;;
19535;SDS011;9913;51.168;4.124;2022-08-19T02:36:56;39.90;;;21.77;;
19535;SDS011;9913;51.168;4.124;2022-08-19T02:39:29;39.45;;;21.40;;
19535;SDS011;9913;51.168;4.124;2022-08-19T02:41:58;40.15;;;19.58;;
19535;SDS011;9913;51.168;4.124;2022-08-19T02:44:28;38.45;;;20.80;;
19535;SDS011;9913;51.168;4.124;2022-08-19T02:46:57;40.95;;;21.42;;
19535;SDS011;9913;51.168;4.124;2022-08-19T02:49:26;42.78;;;21.58;;
19535;SDS011;9913;51.168;4.124;2022-08-19T02:52:03;44.10;;;22.63;;
19535;SDS011;9913;51.168;4.124;2022-08-19T02:54:33;39.72;;;21.92;;
19535;SDS011;9913;51.168;4.124;2022-08-19T02:57:03;42.40;;;22.90;;
19535;SDS011;9913;51.168;4.124;2022-08-19T02:59:32;42.63;;;22.63;;
19535;SDS011;9913;51.168;4.124;2022-08-19T03:02:00;45.00;;;21.83;;
19535;SDS011;9913;51.168;4.124;2022-08-19T03:04:29;40.65;;;21.25;;
19535;SDS011;9913;51.168;4.124;2022-08-19T03:06:59;39.72;;;20.52;;
19535;SDS011;9913;51.168;4.124;2022-08-19T03:09:41;41.58;;;21.40;;
19535;SDS011;9913;51.168;4.124;2022-08-19T03:12:14;39.33;;;19.40;;
19535;SDS011;9913;51.168;4.124;2022-08-19T03:14:42;35.17;;;19.55;;
19535;SDS011;9913;51.168;4.124;2022-08-19T03:17:14;41.58;;;20.25;;
19535;SDS011;9913;51.168;4.124;2022-08-19T03:19:44;38.05;;;19.00;;
19535;SDS011;9913;51.168;4.124;2022-08-19T03:22:16;36.28;;;19.05;;
19535;SDS011;9913;51.168;4.124;2022-08-19T03:24:48;35.72;;;18.38;;
19535;SDS011;9913;51.168;4.124;2022-08-19T03:27:18;36.15;;;19.02;;
19535;SDS011;9913;51.168;4.124;2022-08-19T03:29:48;37.70;;;18.88;;
19535;SDS011;9913;51.168;4.124;2022-08-19T03:32:17;38.65;;;18.55;;
19535;SDS011;9913;51.168;4.124;2022-08-19T03:34:59;34.60;;;18.48;;
19535;SDS011;9913;51.168;4.124;2022-08-19T03:37:27;36.45;;;18.10;;
19535;SDS011;9913;51.168;4.124;2022-08-19T03:39:56;37.35;;;17.83;;
19535;SDS011;9913;51.168;4.124;2022-08-19T03:42:28;33.85;;;18.33;;
19535;SDS011;9913;51.168;4.124;2022-08-19T03:45:14;34.78;;;18.58;;
19535;SDS011;9913;51.168;4.124;2022-08-19T03:47:43;31.05;;;16.98;;
19535;SDS011;9913;51.168;4.124;2022-08-19T03:50:12;32.45;;;17.48;;
19535;SDS011;9913;51.168;4.124;2022-08-19T03:52:41;33.55;;;17.33;;
19535;SDS011;9913;51.168;4.124;2022-08-19T03:55:12;34.13;;;16.80;;
19535;SDS011;9913;51.168;4.124;2022-08-19T03:57:42;32.78;;;16.67;;
19535;SDS011;9913;51.168;4.124;2022-08-19T04:00:12;35.28;;;16.77;;
19535;SDS011;9913;51.168;4.124;2022-08-19T04:02:44;30.42;;;17.42;;
19535;SDS011;9913;51.168;4.124;2022-08-19T04:05:26;33.58;;;18.73;;
19535;SDS011;9913;51.168;4.124;2022-08-19T04:07:58;33.47;;;17.35;;
19535;SDS011;9913;51.168;4.124;2022-08-19T04:10:27;28.95;;;16.92;;
19535;SDS011;9913;51.168;4.124;2022-08-19T04:12:57;28.48;;;15.65;;
19535;SDS011;9913;51.168;4.124;2022-08-19T04:15:25;35.03;;;16.42;;
19535;SDS011;9913;51.168;4.124;2022-08-19T04:18:00;34.20;;;16.55;;
19535;SDS011;9913;51.168;4.124;2022-08-19T04:20:28;28.77;;;15.68;;
19535;SDS011;9913;51.168;4.124;2022-08-19T04:22:59;27.73;;;14.95;;
19535;SDS011;9913;51.168;4.124;2022-08-19T04:25:34;31.02;;;17.30;;
19535;SDS011;9913;51.168;4.124;2022-08-19T04:28:04;29.98;;;15.75;;
19535;SDS011;9913;51.168;4.124;2022-08-19T04:30:37;27.02;;;14.93;;
19535;SDS011;9913;51.168;4.124;2022-08-19T04:33:07;28.10;;;15.43;;
19535;SDS011;9913;51.168;4.124;2022-08-19T04:35:37;32.63;;;15.70;;
19535;SDS011;9913;51.168;4.124;2022-08-19T04:38:06;31.95;;;15.35;;
19535;SDS011;9913;51.168;4.124;2022-08-19T04:40:39;30.80;;;15.60;;
19535;SDS011;9913;51.168;4.124;2022-08-19T04:43:27;28.58;;;14.02;;
19535;SDS011;9913;51.168;4.124;2022-08-19T04:45:56;27.15;;;14.02;;
19535;SDS011;9913;51.168;4.124;2022-08-19T04:48:26;25.90;;;14.75;;
19535;SDS011;9913;51.168;4.124;2022-08-19T04:50:58;28.88;;;14.05;;
19535;SDS011;9913;51.168;4.124;2022-08-19T04:53:31;29.00;;;14.68;;
19535;SDS011;9913;51.168;4.124;2022-08-19T04:56:04;26.80;;;13.32;;
19535;SDS011;9913;51.168;4.124;2022-08-19T04:58:37;24.38;;;13.95;;
19535;SDS011;9913;51.168;4.124;2022-08-19T05:01:07;26.10;;;14.70;;
19535;SDS011;9913;51.168;4.124;2022-08-19T05:03:37;27.85;;;13.88;;
19535;SDS011;9913;51.168;4.124;2022-08-19T05:06:14;29.92;;;14.20;;
19535;SDS011;9913;51.168;4.124;2022-08-19T05:08:45;29.27;;;13.30;;
19535;SDS011;9913;51.168;4.124;2022-08-19T05:11:15;23.52;;;13.32;;
19535;SDS011;9913;51.168;4.124;2022-08-19T05:13:53;23.65;;;13.50;;
19535;SDS011;9913;51.168;4.124;2022-08-19T05:16:23;24.88;;;13.35;;
19535;SDS011;9913;51.168;4.124;2022-08-19T05:18:53;24.63;;;12.88;;
19535;SDS011;9913;51.168;4.124;2022-08-19T05:21:40;24.65;;;13.45;;
19535;SDS011;9913;51.168;4.124;2022-08-19T05:24:27;24.70;;;12.63;;
19535;SDS011;9913;51.168;4.124;2022-08-19T05:26:58;24.00;;;12.73;;
19535;SDS011;9913;51.168;4.124;2022-08-19T05:29:32;21.45;;;11.68;;
19535;SDS011;9913;51.168;4.124;2022-08-19T05:32:06;29.02;;;12.77;;
19535;SDS011;9913;51.168;4.124;2022-08-19T05:34:38;22.70;;;12.27;;
19535;SDS011;9913;51.168;4.124;2022-08-19T05:37:06;25.73;;;12.95;;
19535;SDS011;9913;51.168;4.124;2022-08-19T05:39:37;21.20;;;12.35;;
19535;SDS011;9913;51.168;4.124;2022-08-19T05:42:08;20.05;;;11.68;;
19535;SDS011;9913;51.168;4.124;2022-08-19T05:44:40;23.13;;;11.35;;
19535;SDS011;9913;51.168;4.124;2022-08-19T05:47:15;18.90;;;11.13;;
19535;SDS011;9913;51.168;4.124;2022-08-19T05:49:46;21.63;;;11.57;;
19535;SDS011;9913;51.168;4.124;2022-08-19T05:52:16;18.90;;;10.38;;
19535;SDS011;9913;51.168;4.124;2022-08-19T05:54:52;22.00;;;10.80;;
19535;SDS011;9913;51.168;4.124;2022-08-19T05:57:22;20.13;;;9.93;;
19535;SDS011;9913;51.168;4.124;2022-08-19T05:59:52;17.95;;;10.43;;
19535;SDS011;9913;51.168;4.124;2022-08-19T06:02:28;18.75;;;10.10;;
19535;SDS011;9913;51.168;4.124;2022-08-19T06:04:58;18.23;;;10.48;;
19535;SDS011;9913;51.168;4.124;2022-08-19T06:07:29;19.08;;;9.85;;
19535;SDS011;9913;51.168;4.124;2022-08-19T06:09:58;18.88;;;9.80;;
19535;SDS011;9913;51.168;4.124;2022-08-19T06:12:27;19.15;;;9.43;;
19535;SDS011;9913;51.168;4.124;2022-08-19T06:14:59;18.42;;;9.70;;
19535;SDS011;9913;51.168;4.124;2022-08-19T06:17:29;17.52;;;9.40;;
19535;SDS011;9913;51.168;4.124;2022-08-19T06:19:58;20.73;;;10.65;;
19535;SDS011;9913;51.168;4.124;2022-08-19T06:22:30;18.50;;;10.43;;
19535;SDS011;9913;51.168;4.124;2022-08-19T06:25:00;22.35;;;11.15;;
19535;SDS011;9913;51.168;4.124;2022-08-19T06:27:30;16.33;;;10.18;;
19535;SDS011;9913;51.168;4.124;2022-08-19T06:30:01;18.52;;;9.48;;
19535;SDS011;9913;51.168;4.124;2022-08-19T06:32:31;16.83;;;9.77;;
19535;SDS011;9913;51.168;4.124;2022-08-19T06:35:00;14.73;;;9.07;;
19535;SDS011;9913;51.168;4.124;2022-08-19T06:37:31;15.90;;;9.13;;
19535;SDS011;9913;51.168;4.124;2022-08-19T06:39:59;18.80;;;9.85;;
19535;SDS011;9913;51.168;4.124;2022-08-19T06:42:31;19.45;;;10.48;;
19535;SDS011;9913;51.168;4.124;2022-08-19T06:45:12;18.13;;;10.25;;
19535;SDS011;9913;51.168;4.124;2022-08-19T06:47:41;22.25;;;10.27;;
19535;SDS011;9913;51.168;4.124;2022-08-19T06:50:15;15.82;;;9.50;;
19535;SDS011;9913;51.168;4.124;2022-08-19T06:52:47;19.23;;;10.52;;
19535;SDS011;9913;51.168;4.124;2022-08-19T06:55:16;17.00;;;9.52;;
19535;SDS011;9913;51.168;4.124;2022-08-19T06:57:45;22.08;;;11.32;;
19535;SDS011;9913;51.168;4.124;2022-08-19T07:00:16;17.45;;;9.73;;
19535;SDS011;9913;51.168;4.124;2022-08-19T07:02:44;19.30;;;10.00;;
19535;SDS011;9913;51.168;4.124;2022-08-19T07:05:22;19.40;;;10.25;;
19535;SDS011;9913;51.168;4.124;2022-08-19T07:08:13;18.08;;;9.25;;
19535;SDS011;9913;51.168;4.124;2022-08-19T07:10:46;16.20;;;9.25;;
19535;SDS011;9913;51.168;4.124;2022-08-19T07:13:24;17.15;;;9.65;;
19535;SDS011;9913;51.168;4.124;2022-08-19T07:15:56;19.10;;;9.98;;
19535;SDS011;9913;51.168;4.124;2022-08-19T07:18:36;18.23;;;9.52;;
19535;SDS011;9913;51.168;4.124;2022-08-19T07:21:11;20.02;;;9.93;;
19535;SDS011;9913;51.168;4.124;2022-08-19T07:23:41;16.20;;;9.98;;
19535;SDS011;9913;51.168;4.124;2022-08-19T07:26:13;18.98;;;10.02;;
19535;SDS011;9913;51.168;4.124;2022-08-19T07:28:43;22.13;;;10.95;;
19535;SDS011;9913;51.168;4.124;2022-08-19T07:31:21;21.90;;;9.57;;
19535;SDS011;9913;51.168;4.124;2022-08-19T07:34:00;17.58;;;8.75;;
19535;SDS011;9913;51.168;4.124;2022-08-19T07:36:29;16.33;;;9.27;;
19535;SDS011;9913;51.168;4.124;2022-08-19T07:39:00;17.10;;;9.63;;
19535;SDS011;9913;51.168;4.124;2022-08-19T07:41:30;18.42;;;9.60;;
19535;SDS011;9913;51.168;4.124;2022-08-19T07:43:59;19.33;;;9.68;;
19535;SDS011;9913;51.168;4.124;2022-08-19T07:46:31;13.73;;;9.30;;
19535;SDS011;9913;51.168;4.124;2022-08-19T07:49:02;15.23;;;8.88;;
19535;SDS011;9913;51.168;4.124;2022-08-19T07:51:31;16.08;;;10.15;;
19535;SDS011;9913;51.168;4.124;2022-08-19T07:54:03;16.00;;;8.75;;
19535;SDS011;9913;51.168;4.124;2022-08-19T07:56:31;18.20;;;9.68;;
19535;SDS011;9913;51.168;4.124;2022-08-19T07:59:03;18.52;;;8.95;;
19535;SDS011;9913;51.168;4.124;2022-08-19T08:01:33;12.98;;;8.75;;
19535;SDS011;9913;51.168;4.124;2022-08-19T08:04:07;15.68;;;8.80;;
19535;SDS011;9913;51.168;4.124;2022-08-19T08:06:54;12.70;;;8.32;;
19535;SDS011;9913;51.168;4.124;2022-08-19T08:09:41;16.83;;;8.68;;
19535;SDS011;9913;51.168;4.124;2022-08-19T08:12:16;16.05;;;8.23;;
19535;SDS011;9913;51.168;4.124;2022-08-19T08:15:00;16.77;;;8.90;;
19535;SDS011;9913;51.168;4.124;2022-08-19T08:17:35;14.25;;;8.75;;
19535;SDS011;9913;51.168;4.124;2022-08-19T08:20:15;19.42;;;8.70;;
19535;SDS011;9913;51.168;4.124;2022-08-19T08:22:44;13.30;;;8.27;;
19535;SDS011;9913;51.168;4.124;2022-08-19T08:25:31;15.38;;;8.60;;
19535;SDS011;9913;51.168;4.124;2022-08-19T08:28:03;14.00;;;8.27;;
19535;SDS011;9913;51.168;4.124;2022-08-19T08:30:34;15.57;;;9.15;;
19535;SDS011;9913;51.168;4.124;2022-08-19T08:33:05;13.35;;;8.38;;
19535;SDS011;9913;51.168;4.124;2022-08-19T08:35:34;15.75;;;8.32;;
19535;SDS011;9913;51.168;4.124;2022-08-19T08:38:03;11.95;;;8.60;;
19535;SDS011;9913;51.168;4.124;2022-08-19T08:40:33;14.52;;;8.55;;
19535;SDS011;9913;51.168;4.124;2022-08-19T08:43:08;15.75;;;7.90;;
19535;SDS011;9913;51.168;4.124;2022-08-19T08:45:43;15.70;;;7.93;;
19535;SDS011;9913;51.168;4.124;2022-08-19T08:48:22;16.35;;;9.38;;
19535;SDS011;9913;51.168;4.124;2022-08-19T08:51:00;15.07;;;8.60;;
19535;SDS011;9913;51.168;4.124;2022-08-19T08:53:36;17.20;;;9.02;;
19535;SDS011;9913;51.168;4.124;2022-08-19T08:56:08;17.52;;;9.20;;
19535;SDS011;9913;51.168;4.124;2022-08-19T08:58:46;17.13;;;9.27;;
19535;SDS011;9913;51.168;4.124;2022-08-19T09:01:22;16.75;;;9.32;;
19535;SDS011;9913;51.168;4.124;2022-08-19T09:03:57;14.25;;;8.45;;
19535;SDS011;9913;51.168;4.124;2022-08-19T09:06:32;16.30;;;9.10;;
19535;SDS011;9913;51.168;4.124;2022-08-19T09:09:10;17.20;;;8.57;;
19535;SDS011;9913;51.168;4.124;2022-08-19T09:11:50;17.60;;;8.77;;
19535;SDS011;9913;51.168;4.124;2022-08-19T09:14:37;18.67;;;9.52;;
19535;SDS011;9913;51.168;4.124;2022-08-19T09:17:17;17.05;;;9.18;;
19535;SDS011;9913;51.168;4.124;2022-08-19T09:19:53;14.32;;;9.00;;
19535;SDS011;9913;51.168;4.124;2022-08-19T09:22:23;14.23;;;7.72;;
19535;SDS011;9913;51.168;4.124;2022-08-19T09:24:54;14.27;;;8.20;;
19535;SDS011;9913;51.168;4.124;2022-08-19T09:27:24;17.30;;;9.02;;
19535;SDS011;9913;51.168;4.124;2022-08-19T09:30:10;13.10;;;7.70;;
19535;SDS011;9913;51.168;4.124;2022-08-19T09:32:42;12.73;;;7.80;;
19535;SDS011;9913;51.168;4.124;2022-08-19T09:35:20;12.48;;;7.97;;
19535;SDS011;9913;51.168;4.124;2022-08-19T09:37:55;17.02;;;9.10;;
19535;SDS011;9913;51.168;4.124;2022-08-19T09:40:26;15.52;;;8.20;;
19535;SDS011;9913;51.168;4.124;2022-08-19T09:43:06;15.02;;;9.25;;
19535;SDS011;9913;51.168;4.124;2022-08-19T09:45:40;17.27;;;8.70;;
19535;SDS011;9913;51.168;4.124;2022-08-19T09:48:08;15.50;;;8.55;;
19535;SDS011;9913;51.168;4.124;2022-08-19T09:50:50;13.93;;;7.38;;
19535;SDS011;9913;51.168;4.124;2022-08-19T09:53:23;16.30;;;9.10;;
19535;SDS011;9913;51.168;4.124;2022-08-19T09:55:55;19.88;;;8.32;;
19535;SDS011;9913;51.168;4.124;2022-08-19T09:58:29;13.85;;;7.95;;
19535;SDS011;9913;51.168;4.124;2022-08-19T10:01:02;21.00;;;9.55;;
19535;SDS011;9913;51.168;4.124;2022-08-19T10:03:33;14.88;;;8.15;;
19535;SDS011;9913;51.168;4.124;2022-08-19T10:06:07;14.95;;;8.27;;
19535;SDS011;9913;51.168;4.124;2022-08-19T10:08:46;15.15;;;7.78;;
19535;SDS011;9913;51.168;4.124;2022-08-19T10:11:16;14.77;;;8.75;;
19535;SDS011;9913;51.168;4.124;2022-08-19T10:14:00;15.73;;;7.80;;
19535;SDS011;9913;51.168;4.124;2022-08-19T10:16:28;16.08;;;7.38;;
19535;SDS011;9913;51.168;4.124;2022-08-19T10:19:08;13.60;;;7.65;;
19535;SDS011;9913;51.168;4.124;2022-08-19T10:21:39;11.45;;;7.50;;
19535;SDS011;9913;51.168;4.124;2022-08-19T10:24:08;13.88;;;7.53;;
19535;SDS011;9913;51.168;4.124;2022-08-19T10:26:37;13.10;;;7.30;;
19535;SDS011;9913;51.168;4.124;2022-08-19T10:29:12;14.05;;;8.40;;
19535;SDS011;9913;51.168;4.124;2022-08-19T10:31:59;12.98;;;7.35;;
19535;SDS011;9913;51.168;4.124;2022-08-19T10:34:29;11.85;;;6.85;;
19535;SDS011;9913;51.168;4.124;2022-08-19T10:37:01;12.23;;;6.53;;
19535;SDS011;9913;51.168;4.124;2022-08-19T10:39:36;12.18;;;6.38;;
19535;SDS011;9913;51.168;4.124;2022-08-19T10:42:09;10.63;;;6.85;;
19535;SDS011;9913;51.168;4.124;2022-08-19T10:44:40;12.30;;;7.63;;
19535;SDS011;9913;51.168;4.124;2022-08-19T10:47:09;9.80;;;6.57;;
19535;SDS011;9913;51.168;4.124;2022-08-19T10:49:51;9.50;;;6.55;;
19535;SDS011;9913;51.168;4.124;2022-08-19T10:52:40;7.45;;;5.18;;
19535;SDS011;9913;51.168;4.124;2022-08-19T10:55:20;9.15;;;6.10;;
19535;SDS011;9913;51.168;4.124;2022-08-19T10:58:11;8.82;;;5.53;;
19535;SDS011;9913;51.168;4.124;2022-08-19T11:00:41;9.05;;;5.65;;
19535;SDS011;9913;51.168;4.124;2022-08-19T11:03:20;9.57;;;5.80;;
19535;SDS011;9913;51.168;4.124;2022-08-19T11:06:03;8.85;;;5.60;;
19535;SDS011;9913;51.168;4.124;2022-08-19T11:08:35;7.80;;;4.65;;
19535;SDS011;9913;51.168;4.124;2022-08-19T11:11:07;7.15;;;4.30;;
19535;SDS011;9913;51.168;4.124;2022-08-19T11:13:37;6.63;;;5.15;;
19535;SDS011;9913;51.168;4.124;2022-08-19T11:16:07;7.70;;;4.13;;
19535;SDS011;9913;51.168;4.124;2022-08-19T11:18:47;6.88;;;5.22;;
19535;SDS011;9913;51.168;4.124;2022-08-19T11:21:19;7.10;;;4.05;;
19535;SDS011;9913;51.168;4.124;2022-08-19T11:23:57;5.10;;;3.92;;
19535;SDS011;9913;51.168;4.124;2022-08-19T11:26:29;4.47;;;3.28;;
19535;SDS011;9913;51.168;4.124;2022-08-19T11:28:59;7.45;;;4.15;;
19535;SDS011;9913;51.168;4.124;2022-08-19T11:31:33;4.63;;;3.28;;
19535;SDS011;9913;51.168;4.124;2022-08-19T11:34:05;5.35;;;3.33;;
19535;SDS011;9913;51.168;4.124;2022-08-19T11:36:36;6.72;;;4.00;;
19535;SDS011;9913;51.168;4.124;2022-08-19T11:39:18;5.05;;;3.80;;
19535;SDS011;9913;51.168;4.124;2022-08-19T11:41:50;5.80;;;3.50;;
19535;SDS011;9913;51.168;4.124;2022-08-19T11:44:24;5.53;;;3.22;;
19535;SDS011;9913;51.168;4.124;2022-08-19T11:46:56;6.07;;;3.92;;
19535;SDS011;9913;51.168;4.124;2022-08-19T11:49:34;7.78;;;3.28;;
19535;SDS011;9913;51.168;4.124;2022-08-19T11:52:06;6.90;;;4.07;;
19535;SDS011;9913;51.168;4.124;2022-08-19T11:54:41;4.32;;;3.00;;
19535;SDS011;9913;51.168;4.124;2022-08-19T11:57:12;4.10;;;2.92;;
19535;SDS011;9913;51.168;4.124;2022-08-19T11:59:47;3.88;;;2.88;;
19535;SDS011;9913;51.168;4.124;2022-08-19T12:02:17;5.18;;;3.53;;
19535;SDS011;9913;51.168;4.124;2022-08-19T12:04:46;4.32;;;3.08;;
19535;SDS011;9913;51.168;4.124;2022-08-19T12:07:16;5.00;;;3.28;;
19535;SDS011;9913;51.168;4.124;2022-08-19T12:09:47;3.63;;;2.90;;
19535;SDS011;9913;51.168;4.124;2022-08-19T12:12:16;6.97;;;3.78;;
19535;SDS011;9913;51.168;4.124;2022-08-19T12:14:44;4.97;;;3.78;;
19535;SDS011;9913;51.168;4.124;2022-08-19T12:17:13;4.32;;;3.10;;
19535;SDS011;9913;51.168;4.124;2022-08-19T12:19:41;4.32;;;3.28;;
19535;SDS011;9913;51.168;4.124;2022-08-19T12:22:10;5.20;;;3.10;;
19535;SDS011;9913;51.168;4.124;2022-08-19T12:24:41;6.78;;;3.67;;
19535;SDS011;9913;51.168;4.124;2022-08-19T12:27:14;3.97;;;2.70;;
19535;SDS011;9913;51.168;4.124;2022-08-19T12:30:02;4.40;;;2.67;;
19535;SDS011;9913;51.168;4.124;2022-08-19T12:32:35;4.55;;;2.92;;
19535;SDS011;9913;51.168;4.124;2022-08-19T12:35:04;6.35;;;3.42;;
19535;SDS011;9913;51.168;4.124;2022-08-19T12:37:35;3.75;;;2.88;;
19535;SDS011;9913;51.168;4.124;2022-08-19T12:40:07;3.70;;;2.20;;
19535;SDS011;9913;51.168;4.124;2022-08-19T12:42:40;3.20;;;2.25;;
19535;SDS011;9913;51.168;4.124;2022-08-19T12:45:09;4.65;;;2.60;;
19535;SDS011;9913;51.168;4.124;2022-08-19T12:47:38;3.58;;;2.53;;
19535;SDS011;9913;51.168;4.124;2022-08-19T12:50:13;4.45;;;2.65;;
19535;SDS011;9913;51.168;4.124;2022-08-19T12:52:41;2.92;;;1.77;;
19535;SDS011;9913;51.168;4.124;2022-08-19T12:55:09;3.50;;;2.38;;
19535;SDS011;9913;51.168;4.124;2022-08-19T12:57:42;3.58;;;1.77;;
19535;SDS011;9913;51.168;4.124;2022-08-19T13:00:11;4.30;;;2.10;;
19535;SDS011;9913;51.168;4.124;2022-08-19T13:02:41;2.65;;;2.00;;
19535;SDS011;9913;51.168;4.124;2022-08-19T13:05:12;2.92;;;1.67;;
19535;SDS011;9913;51.168;4.124;2022-08-19T13:07:46;2.97;;;1.92;;
19535;SDS011;9913;51.168;4.124;2022-08-19T13:10:17;3.85;;;1.90;;
19535;SDS011;9913;51.168;4.124;2022-08-19T13:12:51;2.05;;;1.58;;
19535;SDS011;9913;51.168;4.124;2022-08-19T13:15:22;2.10;;;1.65;;
19535;SDS011;9913;51.168;4.124;2022-08-19T13:17:52;2.30;;;1.60;;
19535;SDS011;9913;51.168;4.124;2022-08-19T13:20:23;2.63;;;1.80;;
19535;SDS011;9913;51.168;4.124;2022-08-19T13:22:54;2.63;;;1.65;;
19535;SDS011;9913;51.168;4.124;2022-08-19T13:25:23;3.63;;;1.70;;
19535;SDS011;9913;51.168;4.124;2022-08-19T13:27:54;2.10;;;1.38;;
19535;SDS011;9913;51.168;4.124;2022-08-19T13:30:25;2.03;;;1.50;;
19535;SDS011;9913;51.168;4.124;2022-08-19T13:33:11;2.95;;;1.70;;
19535;SDS011;9913;51.168;4.124;2022-08-19T13:35:43;2.33;;;1.38;;
19535;SDS011;9913;51.168;4.124;2022-08-19T13:38:16;2.50;;;1.90;;
19535;SDS011;9913;51.168;4.124;2022-08-19T13:40:48;2.80;;;1.80;;
19535;SDS011;9913;51.168;4.124;2022-08-19T13:43:19;2.42;;;1.70;;
19535;SDS011;9913;51.168;4.124;2022-08-19T13:45:50;3.55;;;1.90;;
19535;SDS011;9913;51.168;4.124;2022-08-19T13:48:20;2.72;;;1.90;;
19535;SDS011;9913;51.168;4.124;2022-08-19T13:50:50;2.92;;;1.42;;
19535;SDS011;9913;51.168;4.124;2022-08-19T13:53:19;2.03;;;1.20;;
19535;SDS011;9913;51.168;4.124;2022-08-19T13:55:48;1.67;;;1.20;;
19535;SDS011;9913;51.168;4.124;2022-08-19T13:58:17;4.15;;;1.30;;
19535;SDS011;9913;51.168;4.124;2022-08-19T14:00:47;2.70;;;1.60;;
19535;SDS011;9913;51.168;4.124;2022-08-19T14:03:18;3.83;;;1.95;;
19535;SDS011;9913;51.168;4.124;2022-08-19T14:05:49;2.13;;;1.52;;
19535;SDS011;9913;51.168;4.124;2022-08-19T14:08:18;2.38;;;1.08;;
19535;SDS011;9913;51.168;4.124;2022-08-19T14:10:48;2.78;;;1.52;;
19535;SDS011;9913;51.168;4.124;2022-08-19T14:13:18;2.30;;;1.20;;
19535;SDS011;9913;51.168;4.124;2022-08-19T14:15:49;2.63;;;1.40;;
19535;SDS011;9913;51.168;4.124;2022-08-19T14:18:19;3.90;;;2.75;;
19535;SDS011;9913;51.168;4.124;2022-08-19T14:20:52;7.75;;;4.40;;
19535;SDS011;9913;51.168;4.124;2022-08-19T14:23:24;10.02;;;5.57;;
19535;SDS011;9913;51.168;4.124;2022-08-19T14:26:02;8.00;;;5.90;;
19535;SDS011;9913;51.168;4.124;2022-08-19T14:28:32;12.98;;;7.50;;
19535;SDS011;9913;51.168;4.124;2022-08-19T14:31:01;11.07;;;6.43;;
19535;SDS011;9913;51.168;4.124;2022-08-19T14:33:29;8.23;;;4.88;;
19535;SDS011;9913;51.168;4.124;2022-08-19T14:35:59;3.83;;;2.42;;
19535;SDS011;9913;51.168;4.124;2022-08-19T14:38:31;3.90;;;2.30;;
19535;SDS011;9913;51.168;4.124;2022-08-19T14:41:10;7.22;;;2.28;;
19535;SDS011;9913;51.168;4.124;2022-08-19T14:43:45;4.80;;;2.13;;
19535;SDS011;9913;51.168;4.124;2022-08-19T14:46:17;3.58;;;2.10;;
19535;SDS011;9913;51.168;4.124;2022-08-19T14:48:51;3.35;;;1.90;;
19535;SDS011;9913;51.168;4.124;2022-08-19T14:51:22;3.45;;;1.83;;
19535;SDS011;9913;51.168;4.124;2022-08-19T14:53:53;4.47;;;1.90;;
19535;SDS011;9913;51.168;4.124;2022-08-19T14:56:25;4.53;;;1.85;;
19535;SDS011;9913;51.168;4.124;2022-08-19T14:58:56;2.45;;;1.58;;
19535;SDS011;9913;51.168;4.124;2022-08-19T15:01:27;3.17;;;1.77;;
19535;SDS011;9913;51.168;4.124;2022-08-19T15:03:59;3.70;;;1.73;;
19535;SDS011;9913;51.168;4.124;2022-08-19T15:06:29;4.03;;;2.20;;
19535;SDS011;9913;51.168;4.124;2022-08-19T15:08:58;2.85;;;1.92;;
19535;SDS011;9913;51.168;4.124;2022-08-19T15:11:31;3.42;;;2.00;;
19535;SDS011;9913;51.168;4.124;2022-08-19T15:14:02;3.20;;;2.17;;
19535;SDS011;9913;51.168;4.124;2022-08-19T15:16:31;5.30;;;2.30;;